RUK3GZ EGCC-EGAA
Flight info
| Callsign | RUK3GZ |
|---|---|
| Flight time | 0h 37m |
| Altitude | 24000 |
| Route | ASMIM L975 WAL M146 IPSET P6 BELZU |
| Aircraft | B738/M-SDE1E2E3FGIJ1LRWY/SB1 |
Departure
| Time | 2026-05-05 22:49 |
|---|---|
| Airport | Manchester Airport (EGCC) |
Arrival
| Time | 2026-05-05 23:26 |
|---|---|
| Airport | Belfast International Airport (EGAA) |
| Time | Latitude | Longitude | Altitude | Speed | Heading |
|---|---|---|---|---|---|
| 2026-05-05 22:23 | 53.35927 | -2.26987 | 232 ft | 0 kts | 275° |
| 2026-05-05 22:40 | 53.35924 | -2.26950 | 232 ft | 4 kts | 278° |
| 2026-05-05 22:40 | 53.35922 | -2.26913 | 232 ft | 4 kts | 266° |
| 2026-05-05 22:41 | 53.35929 | -2.26872 | 234 ft | 4 kts | 229° |
| 2026-05-05 22:41 | 53.35950 | -2.26849 | 232 ft | 4 kts | 194° |
| 2026-05-05 22:41 | 53.35976 | -2.26839 | 234 ft | 4 kts | 201° |
| 2026-05-05 22:41 | 53.35993 | -2.26819 | 233 ft | 4 kts | 231° |
| 2026-05-05 22:42 | 53.36002 | -2.26799 | 237 ft | 0 kts | 231° |
| 2026-05-05 22:44 | 53.35998 | -2.26808 | 235 ft | 2 kts | 231° |
| 2026-05-05 22:44 | 53.35973 | -2.26837 | 233 ft | 5 kts | 199° |
| 2026-05-05 22:44 | 53.35968 | -2.26839 | 237 ft | 0 kts | 192° |
| 2026-05-05 22:45 | 53.35958 | -2.26840 | 237 ft | 3 kts | 183° |
| 2026-05-05 22:45 | 53.35926 | -2.26829 | 235 ft | 6 kts | 178° |
| 2026-05-05 22:45 | 53.35882 | -2.26876 | 234 ft | 9 kts | 227° |
| 2026-05-05 22:45 | 53.35837 | -2.26980 | 232 ft | 13 kts | 240° |
| 2026-05-05 22:46 | 53.35781 | -2.27122 | 232 ft | 16 kts | 231° |
| 2026-05-05 22:46 | 53.35703 | -2.27283 | 232 ft | 19 kts | 231° |
| 2026-05-05 22:46 | 53.35613 | -2.27470 | 232 ft | 22 kts | 231° |
| 2026-05-05 22:46 | 53.35510 | -2.27680 | 232 ft | 25 kts | 231° |
| 2026-05-05 22:47 | 53.35449 | -2.27925 | 233 ft | 23 kts | 241° |
| 2026-05-05 22:47 | 53.35335 | -2.28115 | 232 ft | 23 kts | 224° |
| 2026-05-05 22:47 | 53.35228 | -2.28303 | 232 ft | 22 kts | 232° |
| 2026-05-05 22:47 | 53.35134 | -2.28506 | 232 ft | 22 kts | 232° |
| 2026-05-05 22:48 | 53.35044 | -2.28694 | 232 ft | 13 kts | 229° |
| 2026-05-05 22:48 | 53.34969 | -2.28740 | 232 ft | 13 kts | 154° |
| 2026-05-05 22:48 | 53.34900 | -2.28654 | 232 ft | 12 kts | 139° |
| 2026-05-05 22:48 | 53.34869 | -2.28541 | 233 ft | 12 kts | 59° |
| 2026-05-05 22:49 | 53.34929 | -2.28416 | 236 ft | 26 kts | 51° |
| 2026-05-05 22:49 | 53.35215 | -2.27825 | 230 ft | 102 kts | 51° |
| 2026-05-05 22:49 | 53.35797 | -2.26619 | 275 ft | 159 kts | 51° |
| 2026-05-05 22:49 | 53.36513 | -2.25141 | 1068 ft | 159 kts | 51° |
| 2026-05-05 22:50 | 53.37215 | -2.23685 | 1937 ft | 165 kts | 49° |
| 2026-05-05 22:50 | 53.38013 | -2.22039 | 2338 ft | 199 kts | 46° |
| 2026-05-05 22:50 | 53.39248 | -2.20806 | 2590 ft | 221 kts | 8° |
| 2026-05-05 22:50 | 53.40762 | -2.21291 | 3115 ft | 230 kts | 327° |
| 2026-05-05 22:51 | 53.41756 | -2.23366 | 3780 ft | 233 kts | 294° |
| 2026-05-05 22:51 | 53.42383 | -2.25886 | 4491 ft | 235 kts | 293° |
| 2026-05-05 22:51 | 53.43059 | -2.28404 | 5175 ft | 238 kts | 295° |
| 2026-05-05 22:51 | 53.43773 | -2.30929 | 5864 ft | 241 kts | 295° |
| 2026-05-05 22:52 | 53.44518 | -2.33505 | 6358 ft | 255 kts | 295° |
| 2026-05-05 22:52 | 53.45329 | -2.36236 | 6955 ft | 266 kts | 297° |
| 2026-05-05 22:52 | 53.46174 | -2.39012 | 7862 ft | 268 kts | 297° |
| 2026-05-05 22:52 | 53.46882 | -2.41900 | 8747 ft | 271 kts | 280° |
| 2026-05-05 22:53 | 53.46882 | -2.45074 | 9626 ft | 275 kts | 262° |
| 2026-05-05 22:53 | 53.46535 | -2.48262 | 10420 ft | 282 kts | 259° |
| 2026-05-05 22:53 | 53.46139 | -2.51626 | 10688 ft | 307 kts | 259° |
| 2026-05-05 22:53 | 53.45718 | -2.55273 | 11048 ft | 326 kts | 259° |
| 2026-05-05 22:54 | 53.45292 | -2.59058 | 11766 ft | 332 kts | 260° |
| 2026-05-05 22:54 | 53.44867 | -2.62883 | 12614 ft | 335 kts | 259° |
| 2026-05-05 22:54 | 53.44438 | -2.66740 | 13466 ft | 338 kts | 259° |
| 2026-05-05 22:54 | 53.44006 | -2.70632 | 14240 ft | 341 kts | 259° |
| 2026-05-05 22:55 | 53.43569 | -2.74569 | 14957 ft | 345 kts | 259° |
| 2026-05-05 22:55 | 53.43127 | -2.78550 | 15661 ft | 350 kts | 259° |
| 2026-05-05 22:55 | 53.42679 | -2.82583 | 16358 ft | 354 kts | 259° |
| 2026-05-05 22:55 | 53.42224 | -2.86661 | 17056 ft | 358 kts | 259° |
| 2026-05-05 22:56 | 53.41762 | -2.90787 | 17751 ft | 362 kts | 259° |
| 2026-05-05 22:56 | 53.41293 | -2.94961 | 18428 ft | 366 kts | 259° |
| 2026-05-05 22:56 | 53.40827 | -2.99100 | 19118 ft | 366 kts | 259° |
| 2026-05-05 22:56 | 53.40353 | -3.03283 | 19888 ft | 365 kts | 259° |
| 2026-05-05 22:57 | 53.39878 | -3.07512 | 20638 ft | 364 kts | 261° |
| 2026-05-05 22:57 | 53.39902 | -3.11686 | 21313 ft | 366 kts | 282° |
| 2026-05-05 22:57 | 53.40778 | -3.15666 | 22073 ft | 365 kts | 299° |
| 2026-05-05 22:57 | 53.42334 | -3.19017 | 22792 ft | 365 kts | 313° |
| 2026-05-05 22:58 | 53.44108 | -3.22058 | 23510 ft | 365 kts | 315° |
| 2026-05-05 22:58 | 53.45920 | -3.25060 | 24006 ft | 367 kts | 315° |
| 2026-05-05 22:58 | 53.47728 | -3.28063 | 24032 ft | 364 kts | 315° |
| 2026-05-05 22:58 | 53.49512 | -3.31065 | 24061 ft | 363 kts | 315° |
| 2026-05-05 22:59 | 53.51291 | -3.34093 | 24062 ft | 364 kts | 315° |
| 2026-05-05 22:59 | 53.53064 | -3.37132 | 24067 ft | 365 kts | 315° |
| 2026-05-05 22:59 | 53.54836 | -3.40182 | 24066 ft | 365 kts | 315° |
| 2026-05-05 22:59 | 53.56608 | -3.43236 | 24065 ft | 365 kts | 315° |
| 2026-05-05 23:00 | 53.59819 | -3.49815 | 24065 ft | 364 kts | 305° |
| 2026-05-05 23:00 | 53.61255 | -3.53323 | 24063 ft | 363 kts | 305° |
| 2026-05-05 23:00 | 53.62696 | -3.56815 | 24059 ft | 363 kts | 306° |
| 2026-05-05 23:01 | 53.64151 | -3.60288 | 24062 ft | 362 kts | 306° |
| 2026-05-05 23:01 | 53.65606 | -3.63743 | 24062 ft | 362 kts | 306° |
| 2026-05-05 23:01 | 53.67079 | -3.67259 | 24069 ft | 375 kts | 306° |
| 2026-05-05 23:01 | 53.68610 | -3.70924 | 24078 ft | 389 kts | 306° |
| 2026-05-05 23:02 | 53.70193 | -3.74724 | 24073 ft | 402 kts | 306° |
| 2026-05-05 23:02 | 53.71823 | -3.78644 | 24076 ft | 415 kts | 306° |
| 2026-05-05 23:02 | 53.73502 | -3.82689 | 24073 ft | 426 kts | 306° |
| 2026-05-05 23:02 | 53.75222 | -3.86837 | 24076 ft | 436 kts | 306° |
| 2026-05-05 23:03 | 53.76979 | -3.91081 | 24074 ft | 445 kts | 306° |
| 2026-05-05 23:03 | 53.78770 | -3.95416 | 24066 ft | 454 kts | 306° |
| 2026-05-05 23:03 | 53.80588 | -3.99826 | 24055 ft | 460 kts | 305° |
| 2026-05-05 23:03 | 53.82422 | -4.04279 | 24054 ft | 461 kts | 305° |
| 2026-05-05 23:04 | 53.84249 | -4.08723 | 24052 ft | 459 kts | 305° |
| 2026-05-05 23:04 | 53.86071 | -4.13162 | 24052 ft | 458 kts | 305° |
| 2026-05-05 23:04 | 53.87828 | -4.17450 | 24035 ft | 438 kts | 305° |
| 2026-05-05 23:04 | 53.89532 | -4.21586 | 23987 ft | 420 kts | 305° |
| 2026-05-05 23:05 | 53.91188 | -4.25590 | 23699 ft | 409 kts | 305° |
| 2026-05-05 23:05 | 53.92807 | -4.29506 | 23263 ft | 402 kts | 305° |
| 2026-05-05 23:05 | 53.94390 | -4.33348 | 22889 ft | 394 kts | 305° |
| 2026-05-05 23:05 | 53.95929 | -4.37151 | 22501 ft | 387 kts | 304° |
| 2026-05-05 23:06 | 53.97434 | -4.40904 | 22093 ft | 381 kts | 304° |
| 2026-05-05 23:06 | 53.98915 | -4.44597 | 21711 ft | 376 kts | 304° |
| 2026-05-05 23:06 | 54.00376 | -4.48241 | 21334 ft | 371 kts | 304° |
| 2026-05-05 23:06 | 54.01818 | -4.51839 | 20953 ft | 366 kts | 303° |
| 2026-05-05 23:07 | 54.03201 | -4.55436 | 20578 ft | 361 kts | 302° |
| 2026-05-05 23:07 | 54.04529 | -4.59037 | 20208 ft | 357 kts | 301° |
| 2026-05-05 23:07 | 54.05829 | -4.62613 | 19849 ft | 354 kts | 301° |
| 2026-05-05 23:07 | 54.07114 | -4.66158 | 19488 ft | 350 kts | 301° |
| 2026-05-05 23:08 | 54.08391 | -4.69673 | 19132 ft | 347 kts | 301° |
| 2026-05-05 23:08 | 54.09656 | -4.73147 | 18778 ft | 344 kts | 301° |
| 2026-05-05 23:08 | 54.10914 | -4.76599 | 18426 ft | 342 kts | 301° |
| 2026-05-05 23:08 | 54.12165 | -4.80030 | 18031 ft | 339 kts | 301° |
| 2026-05-05 23:09 | 54.13401 | -4.83426 | 17653 ft | 336 kts | 301° |
| 2026-05-05 23:09 | 54.14628 | -4.86796 | 17290 ft | 333 kts | 301° |
| 2026-05-05 23:09 | 54.15842 | -4.90135 | 16939 ft | 329 kts | 301° |
| 2026-05-05 23:09 | 54.17042 | -4.93441 | 16603 ft | 326 kts | 301° |
| 2026-05-05 23:10 | 54.18229 | -4.96714 | 16268 ft | 323 kts | 301° |
| 2026-05-05 23:10 | 54.19402 | -4.99953 | 15942 ft | 319 kts | 301° |
| 2026-05-05 23:10 | 54.20562 | -5.03162 | 15616 ft | 316 kts | 301° |
| 2026-05-05 23:10 | 54.21714 | -5.06349 | 15288 ft | 313 kts | 301° |
| 2026-05-05 23:11 | 54.22853 | -5.09508 | 14969 ft | 311 kts | 301° |
| 2026-05-05 23:11 | 54.23983 | -5.12644 | 14648 ft | 308 kts | 301° |
| 2026-05-05 23:11 | 54.25102 | -5.15753 | 14332 ft | 306 kts | 301° |
| 2026-05-05 23:11 | 54.26211 | -5.18840 | 14020 ft | 304 kts | 301° |
| 2026-05-05 23:12 | 54.27313 | -5.21910 | 13685 ft | 302 kts | 301° |
| 2026-05-05 23:12 | 54.28407 | -5.24961 | 13339 ft | 299 kts | 301° |
| 2026-05-05 23:12 | 54.29488 | -5.27980 | 13020 ft | 297 kts | 301° |
| 2026-05-05 23:12 | 54.30561 | -5.30981 | 12699 ft | 294 kts | 301° |
| 2026-05-05 23:13 | 54.31620 | -5.33947 | 12404 ft | 291 kts | 301° |
| 2026-05-05 23:13 | 54.32670 | -5.36891 | 12089 ft | 288 kts | 301° |
| 2026-05-05 23:13 | 54.33711 | -5.39811 | 11789 ft | 286 kts | 301° |
| 2026-05-05 23:13 | 54.34741 | -5.42707 | 11482 ft | 284 kts | 301° |
| 2026-05-05 23:14 | 54.35751 | -5.45548 | 11192 ft | 282 kts | 301° |
| 2026-05-05 23:14 | 54.36766 | -5.48404 | 10895 ft | 280 kts | 301° |
| 2026-05-05 23:14 | 54.37773 | -5.51243 | 10596 ft | 278 kts | 301° |
| 2026-05-05 23:14 | 54.38773 | -5.54066 | 10317 ft | 276 kts | 301° |
| 2026-05-05 23:15 | 54.39758 | -5.56847 | 10181 ft | 268 kts | 301° |
| 2026-05-05 23:15 | 54.40761 | -5.59493 | 10010 ft | 263 kts | 304° |
| 2026-05-05 23:15 | 54.41804 | -5.62064 | 9711 ft | 262 kts | 304° |
| 2026-05-05 23:15 | 54.42848 | -5.64614 | 9425 ft | 260 kts | 304° |
| 2026-05-05 23:16 | 54.43881 | -5.67149 | 9138 ft | 258 kts | 304° |
| 2026-05-05 23:16 | 54.44903 | -5.69672 | 8862 ft | 256 kts | 304° |
| 2026-05-05 23:16 | 54.45912 | -5.72171 | 8598 ft | 254 kts | 304° |
| 2026-05-05 23:16 | 54.46909 | -5.74649 | 8447 ft | 247 kts | 304° |
| 2026-05-05 23:17 | 54.47871 | -5.77042 | 8341 ft | 240 kts | 304° |
| 2026-05-05 23:17 | 54.48801 | -5.79363 | 8238 ft | 232 kts | 304° |
| 2026-05-05 23:17 | 54.49699 | -5.81605 | 8137 ft | 224 kts | 304° |
| 2026-05-05 23:17 | 54.50566 | -5.83773 | 8044 ft | 218 kts | 304° |
| 2026-05-05 23:18 | 54.51472 | -5.85892 | 7877 ft | 223 kts | 314° |
| 2026-05-05 23:18 | 54.52745 | -5.87361 | 7676 ft | 221 kts | 338° |
| 2026-05-05 23:18 | 54.53762 | -5.87772 | 7523 ft | 224 kts | 354° |
| 2026-05-05 23:18 | 54.55314 | -5.87450 | 7301 ft | 227 kts | 15° |
| 2026-05-05 23:19 | 54.56779 | -5.86381 | 7068 ft | 229 kts | 22° |
| 2026-05-05 23:19 | 54.58243 | -5.85312 | 6819 ft | 228 kts | 18° |
| 2026-05-05 23:19 | 54.59725 | -5.84460 | 6576 ft | 227 kts | 13° |
| 2026-05-05 23:19 | 54.61254 | -5.83789 | 6320 ft | 226 kts | 9° |
| 2026-05-05 23:20 | 54.62810 | -5.83299 | 5987 ft | 229 kts | 6° |
| 2026-05-05 23:20 | 54.64391 | -5.82993 | 5746 ft | 227 kts | 2° |
| 2026-05-05 23:20 | 54.65952 | -5.82876 | 5500 ft | 221 kts | 358° |
| 2026-05-05 23:20 | 54.67464 | -5.82937 | 5259 ft | 215 kts | 354° |
| 2026-05-05 23:21 | 54.68950 | -5.83161 | 5074 ft | 213 kts | 351° |
| 2026-05-05 23:21 | 54.70417 | -5.83509 | 4901 ft | 217 kts | 348° |
| 2026-05-05 23:21 | 54.71909 | -5.84036 | 4584 ft | 216 kts | 343° |
| 2026-05-05 23:21 | 54.73200 | -5.85200 | 4295 ft | 206 kts | 315° |
| 2026-05-05 23:22 | 54.73889 | -5.87262 | 4048 ft | 199 kts | 278° |
| 2026-05-05 23:22 | 54.73735 | -5.89616 | 3881 ft | 198 kts | 260° |
| 2026-05-05 23:22 | 54.73420 | -5.91911 | 3808 ft | 197 kts | 255° |
| 2026-05-05 23:22 | 54.73000 | -5.94219 | 3571 ft | 202 kts | 253° |
| 2026-05-05 23:23 | 54.72506 | -5.96467 | 3286 ft | 197 kts | 249° |
| 2026-05-05 23:23 | 54.71953 | -5.98596 | 3014 ft | 192 kts | 248° |
| 2026-05-05 23:23 | 54.71391 | -6.00672 | 2757 ft | 190 kts | 247° |
| 2026-05-05 23:23 | 54.70827 | -6.02755 | 2501 ft | 191 kts | 247° |
| 2026-05-05 23:24 | 54.70310 | -6.04660 | 2248 ft | 187 kts | 248° |
| 2026-05-05 23:24 | 54.69777 | -6.06631 | 1997 ft | 175 kts | 248° |
| 2026-05-05 23:24 | 54.69279 | -6.08475 | 1774 ft | 164 kts | 248° |
| 2026-05-05 23:24 | 54.68805 | -6.10232 | 1537 ft | 159 kts | 248° |
| 2026-05-05 23:25 | 54.68352 | -6.11911 | 1344 ft | 152 kts | 248° |
| 2026-05-05 23:25 | 54.67910 | -6.13554 | 1104 ft | 149 kts | 247° |
| 2026-05-05 23:25 | 54.67472 | -6.15178 | 881 ft | 149 kts | 246° |
| 2026-05-05 23:25 | 54.67036 | -6.16800 | 678 ft | 149 kts | 246° |
| 2026-05-05 23:26 | 54.66597 | -6.18429 | 482 ft | 150 kts | 245° |
| 2026-05-05 23:26 | 54.66158 | -6.20068 | 281 ft | 149 kts | 246° |
| 2026-05-05 23:26 | 54.65788 | -6.21448 | 274 ft | 97 kts | 245° |
| 2026-05-05 23:26 | 54.65592 | -6.22177 | 271 ft | 36 kts | 245° |
| 2026-05-05 23:27 | 54.65501 | -6.22509 | 273 ft | 22 kts | 245° |
| 2026-05-05 23:27 | 54.65530 | -6.22704 | 271 ft | 18 kts | 329° |
| 2026-05-05 23:27 | 54.65644 | -6.22782 | 271 ft | 18 kts | 342° |
| 2026-05-05 23:27 | 54.65739 | -6.22742 | 271 ft | 14 kts | 68° |
| 2026-05-05 23:28 | 54.65749 | -6.22575 | 271 ft | 14 kts | 84° |
| 2026-05-05 23:28 | 54.65758 | -6.22415 | 271 ft | 13 kts | 83° |
| 2026-05-05 23:28 | 54.65768 | -6.22258 | 272 ft | 14 kts | 83° |
| 2026-05-05 23:28 | 54.65795 | -6.22088 | 271 ft | 16 kts | 67° |
| 2026-05-05 23:29 | 54.65843 | -6.21912 | 274 ft | 13 kts | 60° |
| 2026-05-05 23:29 | 54.65877 | -6.21900 | 271 ft | 2 kts | 325° |
| 2026-05-05 23:29 | 54.65890 | -6.21919 | 273 ft | 3 kts | 318° |
| 2026-05-05 23:29 | 54.65911 | -6.21948 | 274 ft | 5 kts | 331° |
| 2026-05-05 23:30 | 54.65920 | -6.21955 | 272 ft | 0 kts | 334° |